Time;durP1;ratioP1;P1;durP2;ratioP2;P2;SDS_P1;SDS_P2;PMS_P1;PMS_P2;Temp;Humidity;BMP_temperature;BMP_pressure;BME280_temperature;BME280_humidity;BME280_pressure;Samples;Min_cycle;Max_cycle;Signal;HPM_P1;HPM_P2
2021/12/09 00:00:22;;;;;;;11.88;7.32;;;;;;;1.96;73.61;91115.38;2070938;69;20868;-72
2021/12/09 00:02:48;;;;;;;10.48;6.20;;;;;;;2.04;73.01;91112.44;2070918;69;20201;-70
2021/12/09 00:05:16;;;;;;;12.60;6.35;;;;;;;1.94;73.57;91123.59;2071090;69;20148;-73
2021/12/09 00:07:42;;;;;;;5.90;4.00;;;;;;;2.06;72.97;91112.53;2071151;69;20174;-74
2021/12/09 00:10:10;;;;;;;3.72;2.67;;;;;;;2.00;73.14;91099.00;2071408;69;20534;-70
2021/12/09 00:12:37;;;;;;;3.55;2.40;;;;;;;2.03;72.95;91099.88;2071647;69;20179;-73
2021/12/09 00:15:04;;;;;;;3.33;2.05;;;;;;;2.04;73.15;91104.81;2071475;69;20174;-71
2021/12/09 00:17:30;;;;;;;2.63;2.00;;;;;;;2.03;73.34;91117.25;2071426;69;20148;-72
2021/12/09 00:19:55;;;;;;;3.50;2.10;;;;;;;1.99;73.58;91124.59;2071771;69;20141;-73
2021/12/09 00:22:21;;;;;;;4.28;2.67;;;;;;;2.09;73.01;91116.19;2071937;69;20673;-70
2021/12/09 00:24:47;;;;;;;5.80;4.15;;;;;;;1.96;72.80;91120.94;2071719;69;20151;-69
2021/12/09 00:27:13;;;;;;;8.77;5.03;;;;;;;1.99;73.24;91107.94;2071864;69;20210;-70
2021/12/09 00:29:39;;;;;;;7.68;4.40;;;;;;;1.98;73.02;91087.78;2071775;69;20144;-72
2021/12/09 00:32:05;;;;;;;5.05;2.95;;;;;;;1.98;73.08;91065.56;2071545;69;20151;-72
2021/12/09 00:34:34;;;;;;;3.08;1.80;;;;;;;1.96;73.34;91056.38;2071263;69;20140;-72
2021/12/09 00:37:18;;;;;;;6.53;3.85;;;;;;;1.58;74.25;91055.31;2068326;69;20135;-73
2021/12/09 00:39:45;;;;;;;7.05;3.30;;;;;;;1.82;74.22;91058.25;2071357;69;20625;-72
2021/12/09 00:42:11;;;;;;;7.65;4.10;;;;;;;1.93;73.38;91049.25;2071693;69;20148;-71
2021/12/09 00:44:37;;;;;;;5.93;3.97;;;;;;;1.92;73.51;91059.63;2071576;69;20151;-73
2021/12/09 00:47:04;;;;;;;6.00;3.20;;;;;;;1.92;73.33;91062.38;2071743;69;20300;-71
2021/12/09 00:49:31;;;;;;;6.32;4.00;;;;;;;1.86;73.99;91064.78;2067916;69;20171;-71
2021/12/09 00:51:57;;;;;;;8.00;4.93;;;;;;;1.74;74.00;91077.84;2071409;69;20132;-73
2021/12/09 00:54:23;;;;;;;8.23;4.82;;;;;;;1.78;73.73;91080.88;2071770;69;20188;-73
2021/12/09 00:56:49;;;;;;;11.48;4.55;;;;;;;1.78;74.05;91091.97;2071850;69;20315;-74
2021/12/09 00:59:15;;;;;;;6.22;4.43;;;;;;;1.76;74.28;91109.22;2068479;69;20279;-74
2021/12/09 01:01:41;;;;;;;6.32;4.43;;;;;;;1.78;73.79;91122.50;2071680;69;20156;-69
2021/12/09 01:04:09;;;;;;;5.95;3.92;;;;;;;1.88;73.39;91125.97;2071683;69;20632;-68
2021/12/09 01:06:35;;;;;;;8.05;4.10;;;;;;;1.90;72.88;91137.19;2071584;69;20323;-68
2021/12/09 01:09:02;;;;;;;6.15;3.80;;;;;;;1.96;73.21;91159.78;2068079;69;20247;-69
2021/12/09 01:11:28;;;;;;;6.93;3.90;;;;;;;1.93;72.62;91160.28;2067868;69;20146;-72
2021/12/09 01:13:53;;;;;;;5.13;3.70;;;;;;;2.03;71.79;91158.88;2071510;69;20608;-73
2021/12/09 01:16:19;;;;;;;5.13;2.85;;;;;;;2.04;72.37;91148.50;2071468;69;20209;-70
2021/12/09 01:18:44;;;;;;;5.65;3.03;;;;;;;2.06;72.09;91142.34;2071652;69;20588;-70
2021/12/09 01:21:11;;;;;;;4.13;2.70;;;;;;;2.07;72.26;91141.78;2071520;69;20152;-71
2021/12/09 01:23:37;;;;;;;4.15;2.90;;;;;;;2.04;73.24;91148.50;2071471;69;20172;-69
2021/12/09 01:26:06;;;;;;;6.15;3.10;;;;;;;2.08;72.76;91153.59;2071745;69;20217;-71
2021/12/09 01:28:41;;;;;;;4.45;3.17;;;;;;;2.02;72.72;91153.94;2071490;69;20151;-72
2021/12/09 01:31:08;;;;;;;8.32;4.22;;;;;;;1.82;73.93;91155.34;2071499;69;20247;-70
2021/12/09 01:33:35;;;;;;;5.22;3.45;;;;;;;1.73;74.62;91157.56;2071071;69;20293;-70
2021/12/09 01:36:02;;;;;;;5.15;3.63;;;;;;;1.97;73.40;91154.97;2071155;69;20199;-72
2021/12/09 01:38:30;;;;;;;7.43;3.90;;;;;;;2.05;72.61;91152.72;2067969;69;20218;-67
2021/12/09 01:40:56;;;;;;;5.72;3.85;;;;;;;2.06;72.28;91159.72;2071347;69;20191;-68
2021/12/09 01:43:23;;;;;;;6.15;3.65;;;;;;;1.95;72.87;91174.28;2071599;69;20247;-68
2021/12/09 01:45:49;;;;;;;6.15;3.95;;;;;;;1.94;73.14;91162.44;2071519;69;20206;-68
2021/12/09 01:48:15;;;;;;;5.13;3.80;;;;;;;1.95;73.43;91168.72;2068318;69;20598;-70
2021/12/09 01:50:41;;;;;;;6.10;4.03;;;;;;;1.93;73.48;91163.78;2071621;69;20148;-70
2021/12/09 01:53:07;;;;;;;5.85;3.60;;;;;;;1.96;73.50;91159.06;2068298;69;20169;-68
2021/12/09 01:55:34;;;;;;;6.60;3.58;;;;;;;1.96;73.17;91159.06;2071452;69;20302;-69
2021/12/09 01:58:00;;;;;;;5.75;3.90;;;;;;;1.84;73.82;91159.00;2071419;69;20142;-70
2021/12/09 02:00:28;;;;;;;6.50;4.32;;;;;;;1.85;74.14;91156.94;2067958;69;20548;-70
2021/12/09 02:02:54;;;;;;;6.90;4.43;;;;;;;1.89;73.89;91157.94;2071499;69;20230;-71
2021/12/09 02:05:20;;;;;;;6.35;3.58;;;;;;;1.69;74.71;91157.28;2067982;69;20144;-70
2021/12/09 02:07:46;;;;;;;6.20;3.90;;;;;;;1.85;74.54;91160.44;2071347;69;20152;-74
2021/12/09 02:10:16;;;;;;;7.47;3.88;;;;;;;1.89;73.74;91162.78;2071362;69;20154;-73
2021/12/09 02:12:42;;;;;;;7.05;4.18;;;;;;;1.92;74.02;91167.13;2071316;69;20187;-74
2021/12/09 02:15:08;;;;;;;7.10;4.25;;;;;;;1.82;74.04;91156.06;2071078;69;20140;-70
2021/12/09 02:17:35;;;;;;;7.53;4.32;;;;;;;1.90;73.45;91150.34;2067797;69;20295;-73
2021/12/09 02:20:03;;;;;;;7.20;4.25;;;;;;;1.80;74.31;91144.13;2071063;69;20148;-70
2021/12/09 02:22:30;;;;;;;6.30;4.00;;;;;;;1.82;74.16;91133.16;2071182;69;20649;-69
2021/12/09 02:24:56;;;;;;;7.43;4.03;;;;;;;1.84;74.16;91142.34;2067849;69;20590;-74
2021/12/09 02:27:24;;;;;;;6.82;4.22;;;;;;;1.86;73.92;91144.53;2071525;69;20185;-70
2021/12/09 02:29:51;;;;;;;5.85;3.75;;;;;;;1.80;74.03;91138.56;2071251;69;20205;-71
2021/12/09 02:32:17;;;;;;;5.60;3.85;;;;;;;1.80;74.44;91138.56;2070925;69;20136;-70
2021/12/09 02:34:42;;;;;;;6.88;4.30;;;;;;;1.78;74.08;91134.31;2070997;69;20159;-69
2021/12/09 02:37:10;;;;;;;5.82;3.78;;;;;;;1.75;74.57;91137.56;2071410;69;20238;-71
2021/12/09 02:39:36;;;;;;;6.35;3.90;;;;;;;1.83;73.99;91154.75;2071148;69;20612;-70
2021/12/09 02:42:02;;;;;;;7.05;4.03;;;;;;;1.80;74.15;91169.81;2071442;69;20224;-72
2021/12/09 02:44:28;;;;;;;6.07;3.88;;;;;;;1.73;74.44;91174.22;2071404;69;20160;-69
2021/12/09 02:46:55;;;;;;;6.18;3.90;;;;;;;1.77;74.39;91195.97;2071252;69;20543;-69
2021/12/09 02:49:24;;;;;;;6.13;3.92;;;;;;;1.80;74.40;91196.84;2071740;69;20191;-72
2021/12/09 02:51:51;;;;;;;8.15;4.20;;;;;;;1.85;73.65;91190.97;2071361;69;20176;-70
2021/12/09 02:54:19;;;;;;;7.03;3.75;;;;;;;1.85;73.47;91181.91;2071698;69;20156;-70
2021/12/09 02:56:46;;;;;;;5.82;3.70;;;;;;;1.81;73.82;91174.03;2065439;69;20239;-70
2021/12/09 02:59:12;;;;;;;4.47;3.28;;;;;;;1.82;73.94;91163.66;2071625;69;20144;-70
2021/12/09 03:01:51;;;;;;;9.25;4.53;;;;;;;1.27;76.01;91163.44;2071598;69;20148;-71
2021/12/09 03:04:17;;;;;;;5.85;3.80;;;;;;;1.71;74.03;91167.81;2071480;69;20277;-71
2021/12/09 03:06:43;;;;;;;7.72;4.40;;;;;;;1.70;74.17;91178.19;2071431;69;20187;-70
2021/12/09 03:09:15;;;;;;;5.35;3.97;;;;;;;1.55;75.27;91181.28;2071719;69;20615;-71
2021/12/09 03:11:42;;;;;;;6.80;4.05;;;;;;;1.65;74.89;91176.47;2071644;69;20152;-70
2021/12/09 03:14:09;;;;;;;6.47;3.70;;;;;;;1.71;73.88;91168.53;2071514;69;20136;-75
2021/12/09 03:16:36;;;;;;;7.00;3.85;;;;;;;1.72;74.24;91172.03;2071571;69;20615;-71
2021/12/09 03:19:06;;;;;;;5.88;4.00;;;;;;;1.66;74.77;91188.28;2071608;69;20140;-72
2021/12/09 03:21:41;;;;;;;7.03;4.00;;;;;;;1.74;74.22;91191.59;2071429;69;20183;-70
2021/12/09 03:24:10;;;;;;;6.90;3.83;;;;;;;1.81;73.46;91195.50;2071664;69;20163;-74
2021/12/09 03:26:43;;;;;;;5.78;3.70;;;;;;;1.76;73.72;91192.47;2071526;69;20168;-73
2021/12/09 03:29:12;;;;;;;6.88;3.90;;;;;;;1.75;74.02;91193.06;2071594;69;20205;-74
2021/12/09 03:31:41;;;;;;;8.95;4.35;;;;;;;1.70;74.74;91197.59;2071646;69;20151;-71
2021/12/09 03:34:07;;;;;;;8.65;4.05;;;;;;;1.71;74.60;91212.94;2071486;69;20152;-73
2021/12/09 03:36:33;;;;;;;5.78;3.97;;;;;;;1.80;74.03;91214.22;2071409;69;20164;-75
2021/12/09 03:39:02;;;;;;;4.82;3.50;;;;;;;1.87;73.43;91218.84;2071523;69;20149;-71
2021/12/09 03:41:28;;;;;;;4.97;3.83;;;;;;;1.75;74.55;91221.53;2071677;69;20147;-70
2021/12/09 03:43:54;;;;;;;4.43;3.10;;;;;;;1.83;73.96;91232.44;2072027;69;20160;-72
2021/12/09 03:46:20;;;;;;;4.28;3.03;;;;;;;1.83;74.28;91228.94;2072065;69;20144;-71
2021/12/09 03:48:46;;;;;;;5.05;3.22;;;;;;;1.88;73.71;91225.88;2072194;69;20187;-74
2021/12/09 03:51:11;;;;;;;6.95;3.28;;;;;;;1.76;73.86;91228.53;2068615;69;20231;-74
2021/12/09 03:53:37;;;;;;;5.72;3.60;;;;;;;1.68;74.86;91230.03;2068621;69;20152;-70
2021/12/09 03:56:03;;;;;;;6.18;3.78;;;;;;;1.74;74.16;91230.44;2071998;69;20649;-73
2021/12/09 03:58:29;;;;;;;6.25;3.70;;;;;;;1.78;74.67;91230.72;2072035;69;20172;-74
2021/12/09 04:00:56;;;;;;;6.60;4.20;;;;;;;1.70;74.96;91230.16;2068685;69;20160;-73
2021/12/09 04:03:22;;;;;;;6.38;3.90;;;;;;;1.75;74.70;91229.13;2071968;69;20183;-70
2021/12/09 04:05:49;;;;;;;5.93;3.85;;;;;;;1.84;73.94;91233.91;2071865;69;20144;-71
2021/12/09 04:08:16;;;;;;;6.70;3.58;;;;;;;1.74;74.66;91242.28;2071966;69;20140;-71
2021/12/09 04:10:42;;;;;;;5.53;3.50;;;;;;;1.80;73.96;91241.97;2068869;69;20145;-71
2021/12/09 04:13:08;;;;;;;4.53;3.25;;;;;;;1.94;73.52;91245.69;2071972;69;20228;-70
2021/12/09 04:15:34;;;;;;;5.50;3.67;;;;;;;1.85;74.57;91249.25;2071968;69;20144;-70
2021/12/09 04:18:00;;;;;;;6.15;3.90;;;;;;;1.92;73.81;91253.88;2071972;69;20172;-69
2021/12/09 04:20:26;;;;;;;5.47;3.42;;;;;;;1.74;74.98;91258.16;2071878;69;20295;-72
2021/12/09 04:22:53;;;;;;;5.60;4.10;;;;;;;1.80;75.21;91266.22;2072054;69;20140;-71
2021/12/09 04:25:21;;;;;;;5.88;3.75;;;;;;;1.89;74.36;91277.28;2072080;69;20574;-71
2021/12/09 04:27:48;;;;;;;5.30;3.63;;;;;;;1.87;74.62;91279.16;2068647;69;20168;-71
2021/12/09 04:30:15;;;;;;;6.00;3.60;;;;;;;1.88;74.43;91273.03;2068632;69;20224;-71
2021/12/09 04:32:41;;;;;;;7.60;4.53;;;;;;;1.63;75.23;91278.22;2071945;69;20209;-72
2021/12/09 04:35:09;;;;;;;7.80;4.28;;;;;;;1.70;75.88;91272.50;2071827;69;20160;-70
2021/12/09 04:37:36;;;;;;;7.32;4.22;;;;;;;1.67;76.03;91278.50;2071922;69;20527;-70
2021/12/09 04:40:04;;;;;;;9.55;4.18;;;;;;;1.76;75.75;91269.44;2072055;69;20500;-69
2021/12/09 04:42:29;;;;;;;9.15;4.43;;;;;;;1.87;75.01;91276.41;2071913;69;20137;-73
2021/12/09 04:44:55;;;;;;;6.95;4.05;;;;;;;1.81;74.97;91276.72;2071973;69;20187;-70
2021/12/09 04:47:21;;;;;;;7.38;4.10;;;;;;;1.80;75.18;91278.03;2072047;69;20141;-73
2021/12/09 04:49:47;;;;;;;5.78;3.90;;;;;;;1.90;74.80;91284.28;2071932;69;20627;-70
2021/12/09 04:52:14;;;;;;;11.40;5.13;;;;;;;1.88;74.88;91278.59;2068529;69;20606;-70
2021/12/09 04:54:42;;;;;;;84.68;32.63;;;;;;;1.82;75.42;91283.72;2071784;69;20564;-70
2021/12/09 04:57:12;;;;;;;29.20;13.77;;;;;;;1.96;74.59;91286.72;2068637;69;20143;-71
2021/12/09 04:59:38;;;;;;;14.20;7.47;;;;;;;1.88;75.44;91280.63;2071919;69;20151;-74
2021/12/09 05:02:09;;;;;;;10.10;6.28;;;;;;;1.94;74.87;91275.50;2071890;69;20227;-74
2021/12/09 05:04:35;;;;;;;11.55;6.93;;;;;;;1.96;74.42;91293.00;2071803;69;20167;-74
2021/12/09 05:07:01;;;;;;;9.27;6.20;;;;;;;1.92;75.23;91300.31;2072015;69;20160;-73
2021/12/09 05:09:26;;;;;;;10.25;6.15;;;;;;;1.94;74.85;91292.16;2071929;69;20160;-72
2021/12/09 05:11:52;;;;;;;7.93;5.47;;;;;;;1.95;75.15;91302.66;2071928;69;20152;-74
2021/12/09 05:14:19;;;;;;;9.05;5.65;;;;;;;1.94;75.09;91312.31;2071824;69;20148;-75
2021/12/09 05:16:52;;;;;;;7.97;5.53;;;;;;;1.89;75.43;91312.63;2071856;69;20148;-70
2021/12/09 05:19:20;;;;;;;6.03;4.20;;;;;;;1.95;74.21;91310.25;2071898;69;20152;-71
2021/12/09 05:21:46;;;;;;;15.98;6.70;;;;;;;1.67;75.97;91315.28;2071736;69;20231;-72
2021/12/09 05:24:13;;;;;;;13.35;6.80;;;;;;;1.43;77.29;91328.19;2071869;69;20148;-74
2021/12/09 05:26:48;;;;;;;16.15;6.97;;;;;;;1.79;75.63;91320.97;2071857;69;20144;-72
2021/12/09 05:29:16;;;;;;;15.10;7.95;;;;;;;1.77;75.96;91320.81;2068626;69;20156;-74
2021/12/09 05:34:27;;;;;;;14.35;8.13;;;;;;;1.83;75.47;91324.00;2071779;69;20144;-71
2021/12/09 05:36:53;;;;;;;16.77;8.50;;;;;;;1.88;75.21;91320.22;2071920;69;20703;-69
2021/12/09 05:39:19;;;;;;;15.07;8.40;;;;;;;1.90;74.53;91322.41;2068524;69;20294;-70
2021/12/09 05:41:46;;;;;;;16.33;8.27;;;;;;;1.83;75.44;91320.50;2071701;69;20235;-71
2021/12/09 05:44:13;;;;;;;16.00;7.57;;;;;;;1.83;75.26;91315.69;2071711;69;20160;-76
2021/12/09 05:46:41;;;;;;;41.00;16.27;;;;;;;1.66;76.11;91324.94;2071763;69;20139;-71
2021/12/09 05:49:07;;;;;;;18.58;9.00;;;;;;;1.70;76.74;91327.28;2071801;69;20144;-71
2021/12/09 05:51:34;;;;;;;15.45;9.40;;;;;;;1.84;75.36;91328.25;2071712;69;20242;-72
2021/12/09 05:53:59;;;;;;;24.35;10.75;;;;;;;1.85;75.57;91340.09;2071743;69;20128;-74
2021/12/09 05:56:25;;;;;;;29.52;13.98;;;;;;;1.81;75.32;91337.03;2071923;69;20149;-72
2021/12/09 05:58:51;;;;;;;24.35;13.20;;;;;;;1.72;75.93;91341.28;2071906;69;20148;-74
2021/12/09 06:01:17;;;;;;;30.52;15.70;;;;;;;1.77;75.35;91351.34;2071929;69;20147;-71
2021/12/09 06:03:43;;;;;;;28.05;15.18;;;;;;;1.88;75.15;91350.00;2071717;69;20158;-71
2021/12/09 06:06:09;;;;;;;27.75;14.68;;;;;;;1.93;74.93;91351.75;2071502;69;20175;-71
2021/12/09 06:08:37;;;;;;;25.65;13.85;;;;;;;1.93;74.60;91349.72;2071745;69;20167;-71
2021/12/09 06:11:04;;;;;;;20.98;12.65;;;;;;;1.88;75.09;91347.97;2071773;69;20160;-73
2021/12/09 06:13:32;;;;;;;26.85;12.55;;;;;;;1.79;75.40;91345.94;2071786;69;20164;-69
2021/12/09 06:15:58;;;;;;;26.52;11.35;;;;;;;1.66;76.98;91349.91;2071778;69;20152;-74
2021/12/09 06:18:24;;;;;;;21.25;10.43;;;;;;;1.83;75.71;91356.59;2071709;69;20180;-72
2021/12/09 06:20:50;;;;;;;27.48;9.65;;;;;;;1.88;74.94;91359.06;2071756;69;20611;-71
2021/12/09 06:23:15;;;;;;;22.80;8.70;;;;;;;1.89;75.29;91360.53;2071909;69;20143;-73
2021/12/09 06:25:41;;;;;;;16.77;7.82;;;;;;;1.85;75.27;91356.75;2068540;69;20496;-71
2021/12/09 06:28:07;;;;;;;28.42;9.00;;;;;;;1.87;75.20;91365.91;2071702;69;20175;-71
2021/12/09 06:30:33;;;;;;;28.50;9.73;;;;;;;1.90;75.52;91364.75;2071686;69;20175;-71
2021/12/09 06:32:58;;;;;;;25.52;10.95;;;;;;;1.87;75.60;91367.97;2071791;69;20194;-71
2021/12/09 06:35:27;;;;;;;19.17;10.63;;;;;;;1.91;75.77;91373.81;2068185;69;20357;-75
2021/12/09 06:37:56;;;;;;;20.55;10.18;;;;;;;1.94;75.42;91362.25;2071659;69;20148;-75
2021/12/09 06:40:23;;;;;;;18.67;11.00;;;;;;;1.96;74.83;91372.78;2068352;69;20243;-75
2021/12/09 06:42:51;;;;;;;18.95;11.07;;;;;;;2.04;74.33;91385.19;2071666;69;20168;-73
2021/12/09 06:45:20;;;;;;;19.83;8.93;;;;;;;2.01;74.78;91378.00;2071686;69;20213;-74
2021/12/09 06:47:46;;;;;;;13.15;7.07;;;;;;;2.03;74.80;91380.94;2071787;69;20173;-75
2021/12/09 06:50:14;;;;;;;9.93;5.88;;;;;;;2.02;74.80;91376.72;2071640;69;20160;-70
2021/12/09 06:52:40;;;;;;;7.38;4.82;;;;;;;2.03;75.21;91378.16;2071690;69;20227;-70
2021/12/09 06:55:08;;;;;;;5.03;3.55;;;;;;;2.01;75.42;91388.38;2071693;69;20232;-70
2021/12/09 06:57:34;;;;;;;5.57;3.90;;;;;;;2.00;75.73;91387.66;2071736;69;20164;-71
2021/12/09 06:59:59;;;;;;;18.00;7.13;;;;;;;1.87;75.34;91384.63;2071731;69;20175;-71
2021/12/09 07:02:25;;;;;;;21.67;8.88;;;;;;;1.96;75.17;91395.69;2071635;69;20164;-70
2021/12/09 07:04:51;;;;;;;18.60;8.48;;;;;;;2.08;74.85;91389.56;2071514;69;20171;-70
2021/12/09 07:07:16;;;;;;;24.67;9.90;;;;;;;1.98;75.38;91401.41;2071621;69;20155;-70
2021/12/09 07:09:42;;;;;;;30.20;11.35;;;;;;;1.87;76.50;91401.28;2071608;69;20523;-70
2021/12/09 07:12:08;;;;;;;35.00;12.70;;;;;;;1.95;75.95;91397.03;2071594;69;20604;-70
2021/12/09 07:14:34;;;;;;;31.63;14.43;;;;;;;2.01;75.71;91405.78;2071689;69;20163;-70
2021/12/09 07:17:00;;;;;;;37.65;16.05;;;;;;;1.99;76.03;91402.88;2072161;69;20239;-73
2021/12/09 07:19:27;;;;;;;34.65;14.65;;;;;;;1.98;75.89;91398.63;2072656;69;20144;-71
2021/12/09 07:21:52;;;;;;;36.30;14.68;;;;;;;2.04;75.60;91406.66;2069495;69;20144;-73
2021/12/09 07:24:18;;;;;;;34.33;14.10;;;;;;;2.00;75.90;91409.13;2072782;69;20148;-67
2021/12/09 07:26:45;;;;;;;33.95;14.65;;;;;;;1.97;75.82;91407.53;2072789;69;20176;-69
2021/12/09 07:29:11;;;;;;;34.42;12.55;;;;;;;2.02;75.56;91418.34;2069400;69;20148;-69
2021/12/09 07:31:37;;;;;;;25.15;11.15;;;;;;;2.06;75.46;91409.56;2072679;69;20217;-69
2021/12/09 07:34:03;;;;;;;23.02;10.63;;;;;;;2.14;75.35;91418.47;2072574;69;20680;-70
2021/12/09 07:36:29;;;;;;;20.63;10.00;;;;;;;2.15;75.40;91408.81;2072561;69;20156;-69
2021/12/09 07:38:55;;;;;;;22.40;9.68;;;;;;;2.18;75.52;91409.69;2072649;69;20140;-68
2021/12/09 07:41:21;;;;;;;24.25;10.10;;;;;;;2.00;76.61;91411.91;2072691;69;20162;-71
2021/12/09 07:43:49;;;;;;;19.15;10.75;;;;;;;2.09;76.28;91416.00;2072634;69;20140;-69
2021/12/09 07:46:15;;;;;;;20.05;10.65;;;;;;;2.14;75.94;91421.25;2072631;69;20144;-73
2021/12/09 07:48:41;;;;;;;21.35;10.48;;;;;;;2.22;75.71;91423.88;2072598;69;20140;-69
2021/12/09 07:51:07;;;;;;;18.52;9.38;;;;;;;2.27;75.77;91423.56;2072459;69;20150;-70
2021/12/09 07:53:32;;;;;;;18.92;9.30;;;;;;;2.39;74.91;91429.25;2072796;69;20155;-69
2021/12/09 07:55:58;;;;;;;17.00;8.40;;;;;;;2.36;74.84;91430.41;2072590;69;20133;-73
2021/12/09 07:58:23;;;;;;;17.60;9.57;;;;;;;2.42;75.33;91432.88;2072586;69;20152;-70
2021/12/09 08:00:49;;;;;;;15.35;8.20;;;;;;;2.45;74.99;91440.03;2072630;69;20144;-70
2021/12/09 08:03:16;;;;;;;15.45;8.05;;;;;;;2.26;76.00;91438.75;2068764;69;20661;-72
2021/12/09 08:05:44;;;;;;;40.13;17.17;;;;;;;2.31;75.03;91442.56;2069137;69;20183;-71
2021/12/09 08:08:10;;;;;;;42.67;15.50;;;;;;;2.40;76.01;91443.84;2069244;69;20619;-70
2021/12/09 08:10:37;;;;;;;35.92;16.75;;;;;;;2.39;75.70;91442.41;2069165;69;20156;-71
2021/12/09 08:13:03;;;;;;;52.60;19.52;;;;;;;2.40;75.62;91446.63;2069429;69;20148;-70
2021/12/09 08:15:34;;;;;;;42.25;18.80;;;;;;;2.34;75.96;91454.50;2069119;69;20164;-72
2021/12/09 08:18:25;;;;;;;46.20;17.35;;;;;;;2.39;75.96;91451.47;2069244;69;20136;-74
2021/12/09 08:20:53;;;;;;;43.45;18.10;;;;;;;2.43;75.81;91453.75;2069229;69;20596;-71
2021/12/09 08:23:19;;;;;;;48.33;18.13;;;;;;;2.48;75.47;91447.19;2069230;69;20177;-70
2021/12/09 08:25:47;;;;;;;40.20;16.67;;;;;;;2.53;75.44;91441.31;2069208;69;20276;-69
2021/12/09 08:28:13;;;;;;;47.58;18.77;;;;;;;2.28;76.61;91452.78;2068927;69;20228;-70
2021/12/09 08:30:40;;;;;;;43.78;17.38;;;;;;;2.71;74.21;91452.97;2068630;69;20148;-70
2021/12/09 08:33:07;;;;;;;35.92;16.67;;;;;;;2.66;75.15;91461.63;2068600;69;20148;-70
2021/12/09 08:35:35;;;;;;;36.45;15.93;;;;;;;2.74;74.89;91462.16;2068517;69;20148;-71
2021/12/09 08:38:05;;;;;;;36.80;16.35;;;;;;;2.79;74.49;91463.91;2068575;69;20147;-74
2021/12/09 08:40:31;;;;;;;61.65;33.92;;;;;;;2.72;74.49;91481.50;2068884;69;20239;-72
2021/12/09 08:42:56;;;;;;;45.58;20.35;;;;;;;2.76;73.51;91485.28;2068572;69;20145;-70
2021/12/09 08:45:23;;;;;;;47.58;21.77;;;;;;;2.78;74.44;91487.47;2068581;69;20173;-68
2021/12/09 08:47:49;;;;;;;46.85;18.88;;;;;;;2.62;75.47;91491.91;2068799;69;20243;-74
2021/12/09 08:50:19;;;;;;;38.67;18.50;;;;;;;2.65;75.78;91490.72;2067938;69;20156;-70
2021/12/09 08:52:46;;;;;;;41.88;19.08;;;;;;;2.77;75.45;91497.13;2068793;69;20638;-74
2021/12/09 08:55:11;;;;;;;34.92;18.50;;;;;;;2.71;75.56;91503.00;2068504;69;20148;-74
2021/12/09 08:57:39;;;;;;;43.03;18.70;;;;;;;2.77;74.84;91499.91;2068555;69;20255;-74
2021/12/09 09:00:11;;;;;;;40.17;19.42;;;;;;;2.90;74.73;91498.69;2067982;69;20266;-71
2021/12/09 09:02:40;;;;;;;31.45;17.42;;;;;;;2.78;75.50;91502.09;2068609;69;20152;-71
2021/12/09 09:05:10;;;;;;;26.10;14.00;;;;;;;2.67;76.03;91501.97;2071798;69;20179;-73
2021/12/09 09:07:37;;;;;;;28.85;13.75;;;;;;;2.90;75.00;91496.63;2072034;69;20589;-72
2021/12/09 09:10:05;;;;;;;32.80;15.48;;;;;;;2.97;74.54;91508.91;2072110;69;20600;-75
2021/12/09 09:12:33;;;;;;;24.55;14.75;;;;;;;2.97;74.43;91517.25;2071886;69;20202;-74
2021/12/09 09:15:00;;;;;;;30.65;15.43;;;;;;;3.04;74.57;91522.63;2071880;69;20241;-75
2021/12/09 09:17:26;;;;;;;26.60;15.18;;;;;;;2.96;75.16;91522.06;2071911;69;20180;-72
2021/12/09 09:19:51;;;;;;;22.13;13.05;;;;;;;2.98;75.08;91521.50;2072049;69;20226;-79
2021/12/09 09:22:17;;;;;;;25.30;12.25;;;;;;;3.11;74.25;91525.81;2068638;69;20152;-71
2021/12/09 09:24:42;;;;;;;20.67;10.85;;;;;;;3.16;73.95;91522.75;2071839;69;20140;-70
2021/12/09 09:27:08;;;;;;;26.70;12.98;;;;;;;3.11;74.72;91525.81;2071831;69;20523;-75
2021/12/09 09:29:37;;;;;;;27.88;13.13;;;;;;;3.06;75.04;91536.66;2068468;69;20172;-74
2021/12/09 09:32:04;;;;;;;34.13;15.85;;;;;;;3.12;75.24;91538.44;2071871;69;20148;-72
2021/12/09 09:34:30;;;;;;;41.85;17.73;;;;;;;3.03;73.55;91531.56;2071671;69;20615;-71
2021/12/09 09:36:56;;;;;;;35.60;18.23;;;;;;;3.10;74.60;91529.94;2071821;69;20223;-76
2021/12/09 09:39:27;;;;;;;38.20;19.17;;;;;;;3.21;74.79;91532.09;2071803;69;20619;-72
2021/12/09 09:42:18;;;;;;;34.67;17.80;;;;;;;3.27;74.56;91535.28;2071821;69;20209;-72
2021/12/09 09:44:54;;;;;;;31.35;17.55;;;;;;;3.38;74.29;91534.63;2071830;69;20234;-72
2021/12/09 09:47:26;;;;;;;29.77;18.38;;;;;;;3.42;74.44;91536.97;2071802;69;20187;-72
2021/12/09 09:49:53;;;;;;;28.25;15.68;;;;;;;3.43;74.11;91539.16;2071659;69;20527;-72
2021/12/09 09:52:19;;;;;;;32.53;16.73;;;;;;;3.61;73.10;91541.72;2071785;69;20666;-71
2021/12/09 09:54:46;;;;;;;26.08;15.25;;;;;;;3.59;73.58;91542.31;2071702;69;20136;-73
2021/12/09 09:57:12;;;;;;;27.42;16.25;;;;;;;3.45;73.93;91536.53;2071896;69;20164;-71
2021/12/09 09:59:42;;;;;;;28.85;15.70;;;;;;;3.43;74.11;91538.44;2071812;69;20152;-71
2021/12/09 10:02:10;;;;;;;28.27;15.82;;;;;;;3.40;74.51;91542.41;2068467;69;20156;-71
2021/12/09 10:04:48;;;;;;;25.10;14.68;;;;;;;3.54;74.14;91532.97;2071721;69;20148;-71
2021/12/09 10:07:19;;;;;;;21.80;13.55;;;;;;;3.62;73.48;91543.91;2071809;69;20236;-72
2021/12/09 10:09:46;;;;;;;24.58;14.52;;;;;;;3.68;73.43;91543.59;2071828;69;20159;-72
2021/12/09 10:12:13;;;;;;;24.60;13.77;;;;;;;3.80;72.93;91541.59;2071754;69;20580;-72
2021/12/09 10:14:39;;;;;;;22.08;13.50;;;;;;;3.83;72.12;91529.28;2071726;69;20139;-70
2021/12/09 10:17:18;;;;;;;25.08;13.73;;;;;;;3.93;72.32;91529.22;2071866;69;20152;-70
2021/12/09 10:19:50;;;;;;;22.17;14.13;;;;;;;4.07;71.71;91536.44;2071663;69;20144;-74
2021/12/09 10:22:23;;;;;;;20.48;13.48;;;;;;;4.02;72.71;91531.94;2071735;69;20500;-71
2021/12/09 10:24:52;;;;;;;18.65;12.45;;;;;;;4.02;71.29;91531.19;2071998;69;20152;-75
2021/12/09 10:27:25;;;;;;;18.20;11.13;;;;;;;4.14;71.83;91536.84;2071766;69;20156;-74
2021/12/09 10:29:56;;;;;;;18.08;10.75;;;;;;;4.25;71.48;91536.16;2071730;69;20141;-71
2021/12/09 10:32:28;;;;;;;14.20;9.27;;;;;;;4.29;70.37;91542.00;2071877;69;20148;-73
2021/12/09 10:34:55;;;;;;;13.27;8.07;;;;;;;4.37;69.15;91534.16;2071647;69;20267;-73
2021/12/09 10:37:30;;;;;;;9.10;6.40;;;;;;;4.30;69.90;91530.25;2071676;69;20145;-72
2021/12/09 10:40:07;;;;;;;8.70;5.93;;;;;;;4.39;69.45;91530.78;2071703;69;20144;-75
2021/12/09 10:42:40;;;;;;;9.27;5.70;;;;;;;4.36;69.79;91526.41;2071931;69;20172;-73
2021/12/09 10:45:14;;;;;;;13.10;6.95;;;;;;;4.26;70.80;91523.69;2071727;69;20148;-74
2021/12/09 10:47:50;;;;;;;9.60;6.18;;;;;;;4.41;70.75;91525.34;2071819;69;20148;-75
2021/12/09 10:50:35;;;;;;;8.95;6.20;;;;;;;4.41;70.31;91530.91;2071600;69;20656;-75
2021/12/09 10:55:44;;;;;;;11.77;7.82;;;;;;;4.24;71.06;91524.28;2071616;69;20194;-75
2021/12/09 10:58:13;;;;;;;10.77;6.57;;;;;;;4.14;70.60;91531.28;2071636;69;20154;-72
2021/12/09 11:00:55;;;;;;;11.52;7.95;;;;;;;4.15;71.49;91527.16;2071631;69;20590;-74
2021/12/09 11:03:23;;;;;;;12.73;8.43;;;;;;;4.21;71.36;91527.53;2071696;69;20178;-74
2021/12/09 11:05:54;;;;;;;13.90;7.90;;;;;;;3.97;71.52;91535.03;2071548;69;20124;-72
2021/12/09 11:08:29;;;;;;;14.13;8.82;;;;;;;4.13;71.76;91533.34;2071768;69;20243;-72
2021/12/09 11:11:16;;;;;;;13.35;8.88;;;;;;;4.38;70.50;91534.91;2071564;69;20218;-73
2021/12/09 11:13:55;;;;;;;15.95;9.25;;;;;;;4.27;70.18;91528.69;2071585;69;20144;-73
2021/12/09 11:16:40;;;;;;;18.17;10.90;;;;;;;4.04;71.56;91534.13;2071768;69;20580;-73
2021/12/09 11:19:06;;;;;;;19.33;12.07;;;;;;;4.28;71.04;91538.50;2071637;69;20606;-73
2021/12/09 11:21:37;;;;;;;18.38;12.05;;;;;;;4.15;71.58;91544.59;2071500;69;20140;-71
2021/12/09 11:24:10;;;;;;;20.83;13.68;;;;;;;4.10;72.16;91537.31;2071769;69;20148;-73
2021/12/09 11:29:16;;;;;;;21.20;14.82;;;;;;;4.03;71.61;91541.00;2071571;69;20175;-74
2021/12/09 11:31:55;;;;;;;20.13;13.40;;;;;;;4.01;71.86;91541.63;2071596;69;20163;-75
2021/12/09 11:34:26;;;;;;;20.08;11.77;;;;;;;4.15;71.32;91550.16;2071498;69;20144;-74
2021/12/09 11:36:58;;;;;;;18.63;11.98;;;;;;;4.27;71.09;91541.88;2071430;69;20607;-76
2021/12/09 11:39:37;;;;;;;;;;;;;;;4.30;71.10;91543.44;2071725;69;20281;-76
2021/12/09 11:42:42;;;;;;;18.25;11.07;;;;;;;4.22;70.70;91534.59;2071610;69;20040;-75
2021/12/09 11:45:09;;;;;;;20.55;14.88;;;;;;;4.42;70.22;91535.88;2071623;69;20156;-76